Time;durP1;ratioP1;P1;durP2;ratioP2;P2;SDS_P1;SDS_P2;PMS_P1;PMS_P2;Temp;Humidity;BMP_temperature;BMP_pressure;BME280_temperature;BME280_humidity;BME280_pressure;Samples;Min_cycle;Max_cycle;Signal;HPM_P1;HPM_P2
2023/08/13 00:02:22;;;;;;;;;;;15.70;99.90;;;;;;5056261;28;20304;-67
2023/08/13 00:04:48;;;;;;;;;;;15.70;99.90;;;;;;5040379;28;20456;-67
2023/08/13 00:07:13;;;;;;;;;;;15.70;99.90;;;;;;5029332;28;20270;-69
2023/08/13 00:09:42;;;;;;;;;;;15.60;99.90;;;;;;5028512;28;20385;-69
2023/08/13 00:12:08;;;;;;;;;;;15.60;99.90;;;;;;5030566;28;19947;-69
2023/08/13 00:14:33;;;;;;;;;;;15.60;99.90;;;;;;5029350;28;20430;-68
2023/08/13 00:16:59;;;;;;;;;;;15.50;99.90;;;;;;5028512;28;20389;-67
2023/08/13 00:19:25;;;;;;;;;;;15.50;99.90;;;;;;5029351;28;20293;-68
2023/08/13 00:21:50;;;;;;;;;;;15.50;99.90;;;;;;5028765;28;20404;-68
2023/08/13 00:24:16;;;;;;;;;;;15.50;99.90;;;;;;5028151;28;19921;-70
2023/08/13 00:26:42;;;;;;;;;;;15.50;99.90;;;;;;5030142;28;19917;-70
2023/08/13 00:29:08;;;;;;;;;;;15.50;99.90;;;;;;5029311;28;19917;-69
2023/08/13 00:31:33;;;;;;;;;;;15.50;99.90;;;;;;5029877;28;19939;-69
2023/08/13 00:33:59;;;;;;;;;;;15.50;99.90;;;;;;5028737;28;20365;-69
2023/08/13 00:36:25;;;;;;;;;;;15.50;99.90;;;;;;5028224;28;19917;-70
2023/08/13 00:38:50;;;;;;;;;;;15.50;99.90;;;;;;5028646;28;19917;-69
2023/08/13 00:41:16;;;;;;;;;;;15.50;99.90;;;;;;5051101;28;19916;-68
2023/08/13 00:43:42;;;;;;;;;;;15.50;99.90;;;;;;5072630;28;19927;-69
2023/08/13 00:46:08;;;;;;;;;;;15.50;99.90;;;;;;5072720;28;20431;-69
2023/08/13 00:48:36;;;;;;;;;;;15.50;99.90;;;;;;5073544;28;19916;-67
2023/08/13 00:51:02;;;;;;;;;;;15.50;99.90;;;;;;5071743;28;19923;-68
2023/08/13 00:53:28;;;;;;;;;;;15.50;99.90;;;;;;5059844;28;19921;-67
2023/08/13 00:55:54;;;;;;;;;;;15.50;99.90;;;;;;5052586;28;19924;-68
2023/08/13 00:58:19;;;;;;;;;;;15.50;99.90;;;;;;5051913;28;20483;-68
2023/08/13 01:00:46;;;;;;;;;;;15.50;99.90;;;;;;5069001;28;20445;-71
2023/08/13 01:03:12;;;;;;;;;;;15.50;99.90;;;;;;5055542;28;19920;-68
2023/08/13 01:05:42;;;;;;;;;;;15.50;99.90;;;;;;5054446;28;20067;-68
2023/08/13 01:08:32;;;;;;;;;;;15.50;99.90;;;;;;5053248;28;19923;-68
2023/08/13 01:11:05;;;;;;;;;;;15.60;99.90;;;;;;5050114;28;19921;-68
2023/08/13 01:13:34;;;;;;;;;;;15.50;99.90;;;;;;5051404;28;19993;-70
2023/08/13 01:16:01;;;;;;;;;;;15.50;99.90;;;;;;5051762;28;20277;-69
2023/08/13 01:18:27;;;;;;;;;;;15.50;99.90;;;;;;5051273;28;19923;-71
2023/08/13 01:20:53;;;;;;;;;;;15.50;99.90;;;;;;5052761;28;19971;-69
2023/08/13 01:23:20;;;;;;;;;;;15.40;99.90;;;;;;5052886;28;19924;-68
2023/08/13 01:25:51;;;;;;;;;;;15.40;99.90;;;;;;5051149;28;19998;-71
2023/08/13 01:28:39;;;;;;;;;;;15.40;99.90;;;;;;5051781;28;19923;-68
2023/08/13 01:31:11;;;;;;;;;;;15.40;99.90;;;;;;5051582;28;19923;-67
2023/08/13 01:33:38;;;;;;;;;;;15.40;99.90;;;;;;5041559;28;19923;-69
2023/08/13 01:36:05;;;;;;;;;;;15.40;99.90;;;;;;5015157;28;19928;-70
2023/08/13 01:38:31;;;;;;;;;;;15.40;99.90;;;;;;5051566;28;19970;-68
2023/08/13 01:40:57;;;;;;;;;;;15.40;99.90;;;;;;5051218;28;20006;-67
2023/08/13 01:43:23;;;;;;;;;;;15.40;99.90;;;;;;5052556;28;19921;-67
2023/08/13 01:45:48;;;;;;;;;;;15.40;99.90;;;;;;5052777;28;19995;-68
2023/08/13 01:48:14;;;;;;;;;;;15.40;99.90;;;;;;5050568;28;19927;-69
2023/08/13 01:50:40;;;;;;;;;;;15.40;99.90;;;;;;5051050;28;20289;-65
2023/08/13 01:53:06;;;;;;;;;;;15.30;99.90;;;;;;5052030;28;19917;-69
2023/08/13 01:55:32;;;;;;;;;;;15.30;99.90;;;;;;5050434;28;19927;-69
2023/08/13 01:57:57;;;;;;;;;;;15.30;99.90;;;;;;5051066;28;19925;-69
2023/08/13 02:00:23;;;;;;;;;;;15.20;99.90;;;;;;5064522;28;19916;-70
2023/08/13 02:02:49;;;;;;;;;;;15.30;99.90;;;;;;5070890;28;19931;-69
2023/08/13 02:05:15;;;;;;;;;;;15.20;99.90;;;;;;5058490;28;20687;-68
2023/08/13 02:07:41;;;;;;;;;;;15.30;99.90;;;;;;5050339;28;19917;-69
2023/08/13 02:10:06;;;;;;;;;;;15.20;99.90;;;;;;5052161;28;19917;-68
2023/08/13 02:12:32;;;;;;;;;;;15.20;99.90;;;;;;5051977;28;19924;-69
2023/08/13 02:14:58;;;;;;;;;;;15.20;99.90;;;;;;5050338;28;19920;-70
2023/08/13 02:17:24;;;;;;;;;;;15.20;99.90;;;;;;5050631;28;20388;-70
2023/08/13 02:19:50;;;;;;;;;;;15.10;99.90;;;;;;5051826;28;19917;-70
2023/08/13 02:22:16;;;;;;;;;;;15.10;99.90;;;;;;5050138;28;20422;-69
2023/08/13 02:24:42;;;;;;;;;;;15.20;99.90;;;;;;5051940;28;19921;-69
2023/08/13 02:27:07;;;;;;;;;;;15.20;99.90;;;;;;5050576;28;19921;-69
2023/08/13 02:29:33;;;;;;;;;;;15.30;99.90;;;;;;5049978;28;20396;-68
2023/08/13 02:31:59;;;;;;;;;;;15.30;99.90;;;;;;5050438;28;19974;-68
2023/08/13 02:34:25;;;;;;;;;;;15.30;99.90;;;;;;5033743;28;19921;-68
2023/08/13 02:36:50;;;;;;;;;;;15.40;99.90;;;;;;5049886;28;19924;-68
2023/08/13 02:39:17;;;;;;;;;;;15.40;99.90;;;;;;5050243;28;19920;-67
2023/08/13 02:41:42;;;;;;;;;;;15.40;99.90;;;;;;5050195;28;20377;-68
2023/08/13 02:44:09;;;;;;;;;;;15.50;99.90;;;;;;5049506;28;19928;-68
2023/08/13 02:46:35;;;;;;;;;;;15.50;99.90;;;;;;5049902;28;19920;-70
2023/08/13 02:49:00;;;;;;;;;;;15.60;99.90;;;;;;5051196;28;19920;-69
2023/08/13 02:51:26;;;;;;;;;;;15.50;99.90;;;;;;5049789;28;20017;-69
2023/08/13 02:53:52;;;;;;;;;;;15.60;99.90;;;;;;5049808;28;19921;-67
2023/08/13 02:56:18;;;;;;;;;;;15.60;99.90;;;;;;5049609;28;19916;-67
2023/08/13 02:58:44;;;;;;;;;;;15.60;99.90;;;;;;5049855;28;19928;-68
2023/08/13 03:01:10;;;;;;;;;;;15.60;99.90;;;;;;5058841;28;19917;-66
2023/08/13 03:03:36;;;;;;;;;;;15.70;99.90;;;;;;5049206;28;19968;-65
2023/08/13 03:06:02;;;;;;;;;;;15.70;99.90;;;;;;5050597;28;19979;-66
2023/08/13 03:08:28;;;;;;;;;;;15.70;99.90;;;;;;5050970;28;19940;-68
2023/08/13 03:10:54;;;;;;;;;;;15.80;99.90;;;;;;5049442;28;19931;-68
2023/08/13 03:13:20;;;;;;;;;;;15.80;99.90;;;;;;5049837;28;20288;-68
2023/08/13 03:15:46;;;;;;;;;;;15.90;99.90;;;;;;5049792;28;20379;-67
2023/08/13 03:18:11;;;;;;;;;;;15.90;99.90;;;;;;5050170;28;19917;-69
2023/08/13 03:20:37;;;;;;;;;;;15.90;99.90;;;;;;5049634;28;19917;-68
2023/08/13 03:23:03;;;;;;;;;;;16.00;99.90;;;;;;5049633;28;19921;-66
2023/08/13 03:25:29;;;;;;;;;;;16.00;99.90;;;;;;5047513;28;19928;-68
2023/08/13 03:27:55;;;;;;;;;;;16.00;99.90;;;;;;5049752;28;19920;-67
2023/08/13 03:30:20;;;;;;;;;;;16.00;99.90;;;;;;5049453;28;20385;-67
2023/08/13 03:32:46;;;;;;;;;;;16.10;99.90;;;;;;5049025;28;19917;-67
2023/08/13 03:35:12;;;;;;;;;;;16.10;99.90;;;;;;5049325;28;20429;-67
2023/08/13 03:37:37;;;;;;;;;;;16.10;99.90;;;;;;5061020;28;19917;-67
2023/08/13 03:40:05;;;;;;;;;;;16.20;99.90;;;;;;5069766;28;20331;-68
2023/08/13 03:42:34;;;;;;;;;;;16.20;99.90;;;;;;5070337;28;19916;-68
2023/08/13 03:45:02;;;;;;;;;;;16.20;99.90;;;;;;5070213;28;19920;-70
2023/08/13 03:47:28;;;;;;;;;;;16.20;99.90;;;;;;5069009;28;20023;-68
2023/08/13 03:49:54;;;;;;;;;;;16.20;99.90;;;;;;5069248;28;20128;-71
2023/08/13 03:52:19;;;;;;;;;;;16.20;99.90;;;;;;5052094;28;19920;-68
2023/08/13 03:54:45;;;;;;;;;;;16.30;99.90;;;;;;5068768;28;19924;-69
2023/08/13 03:57:19;;;;;;;;;;;16.30;99.90;;;;;;5069060;28;20005;-68
2023/08/13 03:59:44;;;;;;;;;;;16.30;99.90;;;;;;5066945;28;19978;-68
2023/08/13 04:02:10;;;;;;;;;;;16.20;99.90;;;;;;5051136;28;19951;-68
2023/08/13 04:04:36;;;;;;;;;;;16.30;99.90;;;;;;5050234;28;19928;-68
2023/08/13 04:07:03;;;;;;;;;;;16.30;99.90;;;;;;5048552;28;19917;-69
2023/08/13 04:09:28;;;;;;;;;;;16.30;99.90;;;;;;5050174;28;20305;-67
2023/08/13 04:11:54;;;;;;;;;;;16.30;99.90;;;;;;5049173;28;19920;-66
2023/08/13 04:14:20;;;;;;;;;;;16.30;99.90;;;;;;5049923;28;20335;-67
2023/08/13 04:16:46;;;;;;;;;;;16.30;99.90;;;;;;5032838;28;20254;-66
2023/08/13 04:19:12;;;;;;;;;;;16.30;99.90;;;;;;5054231;28;19917;-69
2023/08/13 04:21:37;;;;;;;;;;;16.30;99.90;;;;;;5049515;28;19917;-71
2023/08/13 04:24:04;;;;;;;;;;;16.20;99.90;;;;;;5054223;28;19928;-68
2023/08/13 04:26:29;;;;;;;;;;;16.30;99.90;;;;;;5054198;28;19917;-69
2023/08/13 04:28:55;;;;;;;;;;;16.30;99.90;;;;;;5053523;28;20455;-69
2023/08/13 04:31:21;;;;;;;;;;;16.30;99.90;;;;;;5052834;28;20351;-69
2023/08/13 04:33:47;;;;;;;;;;;16.30;99.90;;;;;;5053875;28;20297;-70
2023/08/13 04:36:13;;;;;;;;;;;16.30;99.90;;;;;;5053007;28;20380;-68
2023/08/13 04:38:39;;;;;;;;;;;16.30;99.90;;;;;;5052624;28;19924;-67
2023/08/13 04:41:04;;;;;;;;;;;16.30;99.90;;;;;;5053596;28;19944;-68
2023/08/13 04:43:30;;;;;;;;;;;16.30;99.90;;;;;;5051857;28;19921;-69
2023/08/13 04:45:56;;;;;;;;;;;16.30;99.90;;;;;;5052428;28;19917;-70
2023/08/13 04:48:41;;;;;;;;;;;16.30;99.90;;;;;;5052236;28;19923;-69
2023/08/13 04:51:06;;;;;;;;;;;16.30;99.90;;;;;;5053807;28;19923;-70
2023/08/13 04:53:35;;;;;;;;;;;16.40;99.90;;;;;;5052229;28;19916;-70
2023/08/13 04:56:01;;;;;;;;;;;16.40;99.90;;;;;;5052998;28;19972;-71
2023/08/13 04:58:27;;;;;;;;;;;16.40;99.90;;;;;;5053406;28;19916;-68
2023/08/13 05:00:53;;;;;;;;;;;16.40;99.90;;;;;;5066208;28;20391;-68
2023/08/13 05:03:19;;;;;;;;;;;16.40;99.90;;;;;;5071388;28;20025;-71
2023/08/13 05:05:44;;;;;;;;;;;16.40;99.90;;;;;;5071954;28;19920;-70
2023/08/13 05:08:10;;;;;;;;;;;16.50;99.90;;;;;;5072082;28;20503;-70
2023/08/13 05:10:36;;;;;;;;;;;16.50;99.90;;;;;;5071393;28;19923;-70
2023/08/13 05:13:01;;;;;;;;;;;16.40;99.90;;;;;;5072192;28;19916;-71
2023/08/13 05:15:27;;;;;;;;;;;16.50;99.90;;;;;;5051972;28;19916;-66
2023/08/13 05:17:53;;;;;;;;;;;16.50;99.90;;;;;;5048301;28;19917;-68
2023/08/13 05:20:18;;;;;;;;;;;16.50;99.90;;;;;;5051587;28;19917;-68
2023/08/13 05:22:44;;;;;;;;;;;16.50;99.90;;;;;;5052855;28;19920;-66
2023/08/13 05:25:10;;;;;;;;;;;16.50;99.90;;;;;;5051049;28;19923;-70
2023/08/13 05:27:36;;;;;;;;;;;16.50;99.90;;;;;;5051227;28;20373;-67
2023/08/13 05:30:02;;;;;;;;;;;16.50;99.90;;;;;;5051686;28;20320;-67
2023/08/13 05:32:28;;;;;;;;;;;16.40;99.90;;;;;;5050745;28;19916;-67
2023/08/13 05:34:54;;;;;;;;;;;16.40;99.90;;;;;;5051187;28;19937;-68
2023/08/13 05:37:20;;;;;;;;;;;16.50;99.90;;;;;;5050801;28;19924;-65
2023/08/13 05:39:45;;;;;;;;;;;16.50;99.90;;;;;;5052494;28;19916;-66
2023/08/13 05:42:11;;;;;;;;;;;16.40;99.90;;;;;;5051239;28;19917;-66
2023/08/13 05:44:37;;;;;;;;;;;16.40;99.90;;;;;;5051829;28;19928;-70
2023/08/13 05:47:03;;;;;;;;;;;16.40;99.90;;;;;;5052539;28;20012;-68
2023/08/13 05:49:28;;;;;;;;;;;16.40;99.90;;;;;;5051101;28;20047;-69
2023/08/13 05:51:54;;;;;;;;;;;16.40;99.90;;;;;;5051685;28;20025;-69
2023/08/13 05:54:20;;;;;;;;;;;16.40;99.90;;;;;;5050994;28;20440;-69
2023/08/13 05:56:46;;;;;;;;;;;16.50;99.90;;;;;;5046630;28;20403;-66
2023/08/13 05:59:12;;;;;;;;;;;16.50;99.90;;;;;;5038896;28;19916;-67
2023/08/13 06:01:38;;;;;;;;;;;16.60;99.90;;;;;;5070638;28;19923;-69
2023/08/13 06:04:04;;;;;;;;;;;16.50;99.90;;;;;;5071942;28;19979;-66
2023/08/13 06:06:30;;;;;;;;;;;16.50;99.90;;;;;;5071462;28;19923;-67
2023/08/13 06:08:56;;;;;;;;;;;16.60;99.90;;;;;;5070943;28;20292;-66
2023/08/13 06:11:21;;;;;;;;;;;16.70;99.90;;;;;;5071209;28;19916;-65
2023/08/13 06:13:47;;;;;;;;;;;16.90;99.90;;;;;;5069826;28;19922;-69
2023/08/13 06:16:14;;;;;;;;;;;17.00;99.90;;;;;;5051806;28;20001;-70
2023/08/13 06:18:39;;;;;;;;;;;17.20;99.90;;;;;;5051979;28;19963;-67
2023/08/13 06:21:05;;;;;;;;;;;17.40;99.90;;;;;;5050069;28;19955;-65
2023/08/13 06:23:31;;;;;;;;;;;17.50;99.90;;;;;;5052014;28;19920;-67
2023/08/13 06:25:56;;;;;;;;;;;17.60;99.90;;;;;;5051952;28;19920;-70
2023/08/13 06:28:22;;;;;;;;;;;17.60;99.90;;;;;;5050089;28;19916;-70
2023/08/13 06:30:49;;;;;;;;;;;17.70;99.90;;;;;;5050546;28;19917;-68
2023/08/13 06:33:14;;;;;;;;;;;17.50;99.90;;;;;;5057183;28;19920;-69
2023/08/13 06:35:44;;;;;;;;;;;17.60;99.90;;;;;;5071485;28;19916;-66
2023/08/13 06:38:09;;;;;;;;;;;17.70;99.90;;;;;;5071910;28;19920;-67
2023/08/13 06:40:35;;;;;;;;;;;17.70;99.90;;;;;;5068851;28;19966;-69
2023/08/13 06:43:01;;;;;;;;;;;18.00;99.90;;;;;;5071519;28;19920;-70
2023/08/13 06:45:27;;;;;;;;;;;18.10;99.90;;;;;;5071543;28;19959;-70
2023/08/13 06:47:54;;;;;;;;;;;18.00;99.90;;;;;;5069770;28;20335;-69
2023/08/13 06:50:20;;;;;;;;;;;18.10;99.90;;;;;;5070223;28;19970;-69
2023/08/13 06:52:45;;;;;;;;;;;18.20;99.90;;;;;;5064351;28;19967;-69
2023/08/13 06:55:11;;;;;;;;;;;18.40;99.90;;;;;;5047738;28;19928;-66
2023/08/13 06:57:37;;;;;;;;;;;18.40;99.90;;;;;;5043793;28;20003;-66
2023/08/13 07:00:05;;;;;;;;;;;18.30;99.90;;;;;;5061711;28;19917;-69
2023/08/13 07:02:31;;;;;;;;;;;18.40;99.90;;;;;;5052456;28;19920;-68
2023/08/13 07:04:57;;;;;;;;;;;18.60;99.90;;;;;;5069833;28;20058;-70
2023/08/13 07:07:23;;;;;;;;;;;18.90;99.90;;;;;;5070096;28;19917;-70
2023/08/13 07:09:49;;;;;;;;;;;19.10;99.90;;;;;;5070478;28;20381;-71
2023/08/13 07:12:14;;;;;;;;;;;19.40;99.90;;;;;;5053652;28;19920;-71
2023/08/13 07:14:41;;;;;;;;;;;19.60;99.90;;;;;;5049749;28;19944;-69
2023/08/13 07:17:06;;;;;;;;;;;19.70;99.90;;;;;;5049103;28;19952;-69
2023/08/13 07:19:33;;;;;;;;;;;19.80;99.90;;;;;;5050891;28;20006;-68
2023/08/13 07:21:59;;;;;;;;;;;19.90;99.90;;;;;;5050899;28;19921;-70
2023/08/13 07:24:25;;;;;;;;;;;20.10;99.90;;;;;;5050166;28;19932;-70
2023/08/13 07:26:51;;;;;;;;;;;20.30;99.90;;;;;;5049396;28;20003;-71
2023/08/13 07:29:16;;;;;;;;;;;20.50;99.90;;;;;;5045852;28;19924;-69
2023/08/13 07:31:42;;;;;;;;;;;20.60;99.90;;;;;;5029252;28;19917;-69
2023/08/13 07:34:08;;;;;;;;;;;20.60;99.90;;;;;;5043253;28;19916;-71
2023/08/13 07:36:34;;;;;;;;;;;20.50;99.90;;;;;;5048954;28;19920;-67
2023/08/13 07:39:00;;;;;;;;;;;20.40;99.90;;;;;;5050702;28;19921;-71
2023/08/13 07:41:26;;;;;;;;;;;20.40;99.90;;;;;;5050716;28;19942;-71
2023/08/13 07:43:52;;;;;;;;;;;20.60;99.90;;;;;;5048857;28;19994;-72
2023/08/13 07:46:18;;;;;;;;;;;20.80;99.90;;;;;;5049597;28;19999;-70
2023/08/13 07:48:43;;;;;;;;;;;21.10;99.90;;;;;;5050286;28;20024;-72
2023/08/13 07:51:10;;;;;;;;;;;21.20;99.90;;;;;;5048269;28;19923;-70
2023/08/13 07:53:35;;;;;;;;;;;21.20;99.90;;;;;;5012751;28;20357;-73
2023/08/13 07:56:01;;;;;;;;;;;21.30;99.90;;;;;;5029281;28;19916;-70
2023/08/13 07:58:28;;;;;;;;;;;21.50;99.90;;;;;;5067227;28;19916;-71
2023/08/13 08:00:54;;;;;;;;;;;21.40;99.90;;;;;;5068694;28;20384;-71
2023/08/13 08:03:19;;;;;;;;;;;21.40;99.90;;;;;;5070493;28;19978;-71
2023/08/13 08:05:47;;;;;;;;;;;21.50;99.90;;;;;;5069844;28;19927;-71
2023/08/13 08:08:13;;;;;;;;;;;21.80;99.90;;;;;;5055318;28;20361;-73
2023/08/13 08:10:39;;;;;;;;;;;21.90;99.90;;;;;;5050282;28;19955;-72
2023/08/13 08:13:05;;;;;;;;;;;22.00;99.90;;;;;;5048483;28;19967;-71
2023/08/13 08:15:30;;;;;;;;;;;22.10;99.90;;;;;;5048945;28;19917;-71
2023/08/13 08:17:56;;;;;;;;;;;22.20;99.90;;;;;;5050309;28;19924;-71
2023/08/13 08:20:22;;;;;;;;;;;22.40;99.90;;;;;;5049581;28;20369;-70
2023/08/13 08:22:48;;;;;;;;;;;22.60;99.90;;;;;;5048855;28;19924;-68
2023/08/13 08:25:13;;;;;;;;;;;22.80;99.90;;;;;;5048126;28;19916;-71
2023/08/13 08:27:39;;;;;;;;;;;22.80;99.90;;;;;;5048804;28;19920;-71
2023/08/13 08:30:05;;;;;;;;;;;22.70;99.90;;;;;;5038906;28;20399;-72
2023/08/13 08:32:31;;;;;;;;;;;22.60;99.90;;;;;;5029869;28;19992;-71
2023/08/13 08:34:57;;;;;;;;;;;22.50;99.90;;;;;;5040436;28;20007;-71
2023/08/13 08:37:22;;;;;;;;;;;22.50;99.90;;;;;;5050094;28;19986;-71
2023/08/13 08:39:48;;;;;;;;;;;22.60;99.90;;;;;;5049385;28;19917;-68
2023/08/13 08:42:13;;;;;;;;;;;22.90;99.90;;;;;;5047496;28;19923;-70
2023/08/13 08:44:42;;;;;;;;;;;23.50;99.90;;;;;;5031716;28;20268;-71
2023/08/13 08:47:08;;;;;;;;;;;23.80;99.90;;;;;;5048078;28;20277;-71
2023/08/13 08:49:34;;;;;;;;;;;24.00;99.90;;;;;;5048377;28;20361;-68
2023/08/13 08:52:00;;;;;;;;;;;23.90;99.90;;;;;;5049696;28;19923;-70
2023/08/13 08:54:25;;;;;;;;;;;23.40;99.90;;;;;;5031505;28;20393;-70
2023/08/13 08:56:51;;;;;;;;;;;23.30;99.90;;;;;;5028221;28;20003;-69
2023/08/13 08:59:17;;;;;;;;;;;23.40;99.90;;;;;;5040511;28;19923;-70
2023/08/13 09:01:43;;;;;;;;;;;23.30;99.90;;;;;;5067811;28;19966;-70
2023/08/13 09:04:10;;;;;;;;;;;23.10;99.90;;;;;;5070562;28;19927;-70
2023/08/13 09:06:54;;;;;;;;;;;22.90;99.90;;;;;;5073298;28;19917;-70
2023/08/13 09:09:20;;;;;;;;;;;22.90;99.90;;;;;;5062144;28;20381;-70
2023/08/13 09:11:46;;;;;;;;;;;22.90;99.90;;;;;;5053193;28;19963;-69
2023/08/13 09:14:12;;;;;;;;;;;22.90;99.90;;;;;;5053109;28;20007;-66
2023/08/13 09:16:43;;;;;;;;;;;22.90;99.90;;;;;;5052992;28;19923;-70
2023/08/13 09:19:09;;;;;;;;;;;22.90;99.90;;;;;;5051836;28;20007;-69
2023/08/13 09:21:34;;;;;;;;;;;22.80;99.90;;;;;;5052165;28;20024;-70
2023/08/13 09:24:00;;;;;;;;;;;22.60;99.90;;;;;;5051492;28;19928;-71
2023/08/13 09:29:36;;;;;;;;;;;22.70;99.90;;;;;;5059149;28;20007;-70
2023/08/13 09:32:02;;;;;;;;;;;22.80;99.90;;;;;;5070501;28;19916;-69
2023/08/13 09:34:29;;;;;;;;;;;22.60;99.90;;;;;;5072831;28;19916;-69
2023/08/13 09:36:55;;;;;;;;;;;22.30;99.90;;;;;;5070859;28;19920;-70
2023/08/13 09:39:25;;;;;;;;;;;22.20;99.90;;;;;;5072749;28;19927;-71
2023/08/13 09:41:51;;;;;;;;;;;22.30;99.90;;;;;;5061188;28;19916;-69
2023/08/13 09:44:20;;;;;;;;;;;22.30;99.90;;;;;;5045256;28;20347;-70
2023/08/13 09:46:59;;;;;;;;;;;22.00;99.90;;;;;;5014835;28;19917;-70
2023/08/13 09:49:28;;;;;;;;;;;21.80;99.90;;;;;;5039560;28;19920;-69
2023/08/13 09:51:54;;;;;;;;;;;21.70;99.90;;;;;;5052194;28;19917;-70
2023/08/13 09:54:22;;;;;;;;;;;21.50;99.90;;;;;;5034744;28;20301;-70
2023/08/13 09:56:53;;;;;;;;;;;21.40;99.90;;;;;;5030065;28;19921;-70
2023/08/13 09:59:19;;;;;;;;;;;21.50;99.90;;;;;;5043669;28;19921;-69
2023/08/13 10:01:45;;;;;;;;;;;21.60;99.90;;;;;;5070801;28;19924;-71
2023/08/13 10:04:11;;;;;;;;;;;21.70;99.90;;;;;;5071020;28;19975;-71
2023/08/13 10:06:37;;;;;;;;;;;22.00;99.90;;;;;;5072312;28;19963;-71
2023/08/13 10:09:03;;;;;;;;;;;22.30;99.90;;;;;;5070835;28;19924;-71
2023/08/13 10:11:28;;;;;;;;;;;22.80;99.90;;;;;;5070185;28;19917;-70
2023/08/13 10:13:55;;;;;;;;;;;23.10;99.90;;;;;;5069495;28;19999;-70
2023/08/13 10:16:20;;;;;;;;;;;23.10;99.90;;;;;;5050900;28;19952;-71
2023/08/13 10:18:46;;;;;;;;;;;23.00;99.90;;;;;;5049920;28;19979;-71
2023/08/13 10:21:13;;;;;;;;;;;23.00;99.90;;;;;;5050537;28;19923;-71
2023/08/13 10:23:39;;;;;;;;;;;23.10;99.90;;;;;;5048364;28;19971;-70
2023/08/13 10:26:05;;;;;;;;;;;23.30;99.90;;;;;;5040664;28;19952;-68
2023/08/13 10:28:31;;;;;;;;;;;23.60;99.90;;;;;;5032061;28;19979;-71
2023/08/13 10:31:15;;;;;;;;;;;23.80;99.90;;;;;;5031979;28;20421;-71
2023/08/13 10:33:41;;;;;;;;;;;23.70;99.90;;;;;;5034582;28;20004;-69
2023/08/13 10:36:09;;;;;;;;;;;23.50;99.90;;;;;;5051653;28;19992;-70
2023/08/13 10:38:38;;;;;;;;;;;23.40;99.90;;;;;;5037116;28;19983;-71
2023/08/13 10:41:06;;;;;;;;;;;23.20;99.90;;;;;;5031522;28;19995;-69
2023/08/13 10:43:33;;;;;;;;;;;22.90;99.90;;;;;;5031688;28;19976;-70
2023/08/13 10:45:58;;;;;;;;;;;22.70;99.90;;;;;;5029921;28;19917;-70
2023/08/13 10:48:28;;;;;;;;;;;22.60;99.90;;;;;;5030371;28;19917;-71
2023/08/13 10:50:54;;;;;;;;;;;22.50;99.90;;;;;;5050228;28;19927;-70
2023/08/13 10:53:22;;;;;;;;;;;22.50;99.90;;;;;;5057274;28;19920;-70
2023/08/13 10:55:48;;;;;;;;;;;22.60;99.90;;;;;;5071266;28;19995;-71
2023/08/13 10:58:28;;;;;;;;;;;22.60;99.90;;;;;;5070130;28;20378;-70
2023/08/13 11:01:08;;;;;;;;;;;22.70;99.90;;;;;;5070033;28;19926;-70
2023/08/13 11:03:34;;;;;;;;;;;22.80;99.90;;;;;;5031226;28;20274;-70
2023/08/13 11:06:01;;;;;;;;;;;22.80;99.90;;;;;;5030197;28;19928;-70
2023/08/13 11:08:27;;;;;;;;;;;22.80;99.90;;;;;;5030475;28;20369;-71
2023/08/13 11:10:53;;;;;;;;;;;22.80;99.90;;;;;;5031204;28;19921;-69
2023/08/13 11:13:19;;;;;;;;;;;22.90;99.90;;;;;;5029421;28;19917;-68
2023/08/13 11:15:49;;;;;;;;;;;22.90;99.90;;;;;;5045055;28;20580;-67
2023/08/13 11:18:15;;;;;;;;;;;22.80;99.90;;;;;;5049224;28;19927;-70
2023/08/13 11:20:41;;;;;;;;;;;22.70;99.90;;;;;;5048803;28;19921;-72
2023/08/13 11:23:06;;;;;;;;;;;22.80;99.90;;;;;;5050042;28;20369;-72
2023/08/13 11:25:32;;;;;;;;;;;22.80;99.90;;;;;;5043646;28;20000;-71
2023/08/13 11:27:59;;;;;;;;;;;22.80;99.90;;;;;;5011539;28;19971;-71
2023/08/13 11:30:24;;;;;;;;;;;23.00;99.90;;;;;;5028894;28;19917;-71
2023/08/13 11:32:51;;;;;;;;;;;23.10;99.90;;;;;;5029837;28;19924;-72
2023/08/13 11:35:17;;;;;;;;;;;23.10;99.90;;;;;;5029114;28;19920;-71
2023/08/13 11:37:42;;;;;;;;;;;23.20;99.90;;;;;;5055072;28;19916;-73
2023/08/13 11:40:11;;;;;;;;;;;23.40;99.90;;;;;;5069583;28;19917;-70
2023/08/13 11:42:49;;;;;;;;;;;23.40;99.90;;;;;;5069865;28;19982;-70
2023/08/13 11:45:14;;;;;;;;;;;23.40;99.90;;;;;;5068956;28;19924;-70
2023/08/13 11:47:40;;;;;;;;;;;23.30;99.90;;;;;;5070593;28;20299;-71
2023/08/13 11:50:17;;;;;;;;;;;23.30;99.90;;;;;;5054093;28;20066;-72
2023/08/13 11:52:42;;;;;;;;;;;23.40;99.90;;;;;;5050560;28;19985;-69
2023/08/13 11:55:08;;;;;;;;;;;23.50;99.90;;;;;;5032363;28;19968;-69
